createdAt,value
2023-01-03T00:00:20.821Z,13.45
2023-01-03T00:02:47.420Z,13.29
2023-01-03T00:05:14.356Z,13.20
2023-01-03T00:07:40.939Z,13.47
2023-01-03T00:10:10.520Z,13.47
2023-01-03T00:12:37.865Z,13.54
2023-01-03T00:15:05.218Z,13.12
2023-01-03T00:17:31.924Z,13.16
2023-01-03T00:19:58.538Z,13.02
2023-01-03T00:22:25.414Z,13.23
2023-01-03T00:24:53.519Z,13.45
2023-01-03T00:27:20.165Z,13.46
2023-01-03T00:29:46.808Z,13.11
2023-01-03T00:32:13.899Z,13.28
2023-01-03T00:34:45.629Z,13.24
2023-01-03T00:37:13.841Z,13.66
2023-01-03T00:39:40.769Z,13.30
2023-01-03T00:42:07.464Z,13.45
2023-01-03T00:44:34.170Z,13.48
2023-01-03T00:47:00.934Z,13.07
2023-01-03T00:49:27.727Z,13.42
2023-01-03T00:51:54.436Z,12.68
2023-01-03T00:54:22.178Z,12.55
2023-01-03T00:56:49.895Z,12.85
2023-01-03T00:59:18.534Z,13.11
2023-01-03T01:01:52.138Z,13.32
2023-01-03T01:04:22.794Z,12.87
2023-01-03T01:06:56.461Z,13.13
2023-01-03T01:09:26.065Z,12.90
2023-01-03T01:11:53.334Z,12.58
2023-01-03T01:14:23.907Z,12.46
2023-01-03T01:16:59.552Z,12.21
2023-01-03T01:19:31.181Z,12.30
2023-01-03T01:21:58.119Z,12.64
2023-01-03T01:24:25.041Z,12.47
2023-01-03T01:26:52.281Z,12.91
2023-01-03T01:29:19.764Z,12.42
2023-01-03T01:31:47.206Z,12.18
2023-01-03T01:34:14.323Z,12.45
2023-01-03T01:36:42.348Z,12.05
2023-01-03T01:39:18.755Z,12.35
2023-01-03T01:42:05.375Z,12.32
2023-01-03T01:44:41.092Z,12.15
2023-01-03T01:47:40.111Z,12.30
2023-01-03T01:50:34.148Z,12.37
2023-01-03T01:53:03.054Z,12.04
2023-01-03T01:55:39.080Z,12.43
2023-01-03T01:58:07.323Z,12.21
2023-01-03T02:00:34.376Z,12.16
2023-01-03T02:03:01.315Z,12.48
2023-01-03T02:05:29.221Z,12.06
2023-01-03T02:07:56.670Z,11.61
2023-01-03T02:10:42.261Z,11.55
2023-01-03T02:13:13.484Z,11.66
2023-01-03T02:16:00.210Z,12.22
2023-01-03T02:19:01.618Z,11.95
2023-01-03T02:21:31.177Z,11.96
2023-01-03T02:24:06.191Z,11.49
2023-01-03T02:27:00.031Z,12.24
2023-01-03T02:30:04.391Z,11.93
2023-01-03T02:32:43.169Z,12.14
2023-01-03T02:35:24.938Z,11.14
2023-01-03T02:38:09.115Z,10.86
2023-01-03T02:40:43.385Z,11.39
2023-01-03T02:43:46.589Z,11.93
2023-01-03T02:46:23.828Z,12.38
2023-01-03T02:49:13.013Z,11.71
2023-01-03T02:51:43.184Z,11.84
2023-01-03T02:54:19.919Z,11.39
2023-01-03T02:57:01.025Z,11.64
2023-01-03T02:59:38.504Z,11.73
2023-01-03T03:02:07.071Z,11.80
2023-01-03T03:04:36.687Z,11.82
2023-01-03T03:07:03.199Z,11.26
2023-01-03T03:09:30.533Z,11.39
2023-01-03T03:12:19.483Z,11.14
2023-01-03T03:14:50.731Z,11.44
2023-01-03T03:17:24.575Z,11.18
2023-01-03T03:20:15.630Z,11.15
2023-01-03T03:23:14.992Z,11.11
2023-01-03T03:25:56.680Z,11.06
2023-01-03T03:28:35.382Z,11.79
2023-01-03T03:31:18.358Z,12.01
2023-01-03T03:34:18.373Z,10.70
2023-01-03T03:36:57.112Z,10.73
2023-01-03T03:39:43.933Z,10.44
2023-01-03T03:42:53.029Z,10.81
2023-01-03T03:45:22.581Z,10.53
2023-01-03T03:47:59.322Z,10.46
2023-01-03T03:50:40.896Z,11.07
2023-01-03T03:53:10.701Z,10.78
2023-01-03T03:55:42.037Z,11.05
2023-01-03T03:58:18.110Z,11.32
2023-01-03T04:00:47.965Z,10.87
2023-01-03T04:03:16.166Z,10.60
2023-01-03T04:05:49.028Z,10.93
2023-01-03T04:08:15.894Z,10.55
2023-01-03T04:10:46.408Z,11.01
2023-01-03T04:13:13.222Z,11.36
2023-01-03T04:15:39.865Z,11.01
2023-01-03T04:18:06.999Z,11.16
2023-01-03T04:20:33.799Z,11.32
2023-01-03T04:23:00.476Z,10.50
2023-01-03T04:25:27.132Z,10.99
2023-01-03T04:27:55.002Z,11.14
2023-01-03T04:30:22.525Z,11.24
2023-01-03T04:32:49.071Z,10.73
2023-01-03T04:35:15.835Z,10.38
2023-01-03T04:37:42.380Z,10.15
2023-01-03T04:40:09.619Z,10.16
2023-01-03T04:42:54.461Z,10.68
2023-01-03T04:45:21.083Z,10.81
2023-01-03T04:47:47.693Z,10.49
2023-01-03T04:50:14.322Z,10.55
2023-01-03T04:52:40.915Z,10.94
2023-01-03T04:55:07.891Z,10.64
2023-01-03T04:57:35.713Z,10.62
2023-01-03T05:00:02.294Z,10.90
2023-01-03T05:02:29.022Z,10.46
2023-01-03T05:04:55.613Z,10.60
2023-01-03T05:07:22.219Z,11.23
2023-01-03T05:09:48.751Z,11.25
2023-01-03T05:12:15.422Z,11.38
2023-01-03T05:14:41.938Z,11.18
2023-01-03T05:17:09.164Z,11.09
2023-01-03T05:19:55.788Z,11.04
2023-01-03T05:22:41.116Z,11.09
2023-01-03T05:25:27.996Z,11.17
2023-01-03T05:27:56.038Z,11.55
2023-01-03T05:30:23.430Z,11.57
2023-01-03T05:32:50.061Z,11.52
2023-01-03T05:35:16.673Z,11.00
2023-01-03T05:37:43.210Z,11.37
2023-01-03T05:40:10.249Z,10.83
2023-01-03T05:42:36.847Z,11.02
2023-01-03T05:45:03.526Z,11.41
2023-01-03T05:47:31.130Z,11.56
2023-01-03T05:49:57.700Z,11.66
2023-01-03T05:52:24.233Z,11.10
2023-01-03T05:54:50.943Z,10.89
2023-01-03T05:57:17.504Z,10.80
2023-01-03T05:59:44.101Z,11.53
2023-01-03T06:02:10.766Z,11.17
2023-01-03T06:04:37.503Z,10.98
2023-01-03T06:07:04.119Z,11.23
2023-01-03T06:09:31.734Z,11.27
2023-01-03T06:11:58.387Z,10.85
2023-01-03T06:14:24.962Z,10.90
2023-01-03T06:17:10.210Z,10.99
2023-01-03T06:19:36.819Z,10.87
2023-01-03T06:22:10.271Z,11.36
2023-01-03T06:24:39.908Z,10.55
2023-01-03T06:27:06.553Z,10.48
2023-01-03T06:29:33.131Z,10.89
2023-01-03T06:32:05.162Z,10.25
2023-01-03T06:34:35.488Z,10.43
2023-01-03T06:37:02.184Z,10.39
2023-01-03T06:39:28.765Z,10.90
2023-01-03T06:41:56.171Z,10.72
2023-01-03T06:44:23.437Z,10.34
2023-01-03T06:47:08.508Z,10.50
2023-01-03T06:49:53.905Z,10.63
2023-01-03T06:52:38.991Z,10.88
2023-01-03T06:55:06.144Z,11.29
2023-01-03T06:57:32.746Z,11.20
2023-01-03T06:59:59.315Z,11.31
2023-01-03T07:02:26.156Z,11.24
2023-01-03T07:04:52.968Z,11.13
2023-01-03T07:07:19.607Z,11.30
2023-01-03T07:09:46.369Z,10.51
2023-01-03T07:12:31.691Z,10.52
2023-01-03T07:15:01.157Z,10.11
2023-01-03T07:17:29.743Z,9.89
2023-01-03T07:19:56.443Z,10.11
2023-01-03T07:22:22.974Z,9.79
2023-01-03T07:24:49.604Z,9.78
2023-01-03T07:27:16.221Z,9.59
2023-01-03T07:29:42.759Z,9.64
2023-01-03T07:32:09.341Z,9.07
2023-01-03T07:34:36.152Z,9.43
2023-01-03T07:37:02.781Z,10.00
2023-01-03T07:39:29.433Z,9.86
2023-01-03T07:42:14.538Z,9.87
2023-01-03T07:44:41.477Z,9.96
2023-01-03T07:47:08.067Z,9.78
2023-01-03T07:49:34.647Z,9.64
2023-01-03T07:52:01.315Z,9.59
2023-01-03T07:54:28.917Z,9.52
2023-01-03T07:56:55.531Z,9.80
2023-01-03T07:59:22.319Z,9.81
2023-01-03T08:01:49.089Z,9.92
2023-01-03T08:04:15.760Z,9.77
2023-01-03T08:06:42.340Z,9.41
2023-01-03T08:09:27.518Z,9.52
2023-01-03T08:12:12.653Z,9.55
2023-01-03T08:14:39.259Z,9.27
2023-01-03T08:17:06.539Z,9.71
2023-01-03T08:19:33.203Z,9.20
2023-01-03T08:21:59.886Z,9.45
2023-01-03T08:24:26.455Z,9.84
2023-01-03T08:26:53.249Z,9.59
2023-01-03T08:29:19.835Z,10.04
2023-01-03T08:31:55.710Z,9.61
2023-01-03T08:34:29.740Z,9.18
2023-01-03T08:37:02.036Z,9.25
2023-01-03T08:39:37.294Z,9.09
2023-01-03T08:42:07.610Z,9.52
2023-01-03T08:44:38.912Z,9.67
2023-01-03T08:47:08.652Z,10.15
2023-01-03T08:49:35.958Z,10.13
2023-01-03T08:52:02.643Z,9.66
2023-01-03T08:54:29.247Z,8.97
2023-01-03T08:56:56.105Z,9.61
2023-01-03T08:59:23.183Z,9.83
2023-01-03T09:01:50.505Z,10.14
2023-01-03T09:04:20.209Z,10.26
2023-01-03T09:06:47.413Z,10.13
2023-01-03T09:09:14.323Z,9.86
2023-01-03T09:11:41.113Z,10.18
2023-01-03T09:14:07.909Z,9.64
2023-01-03T09:16:35.091Z,9.88
2023-01-03T09:19:02.733Z,9.91
2023-01-03T09:21:30.125Z,10.18
2023-01-03T09:23:58.714Z,9.88
2023-01-03T09:26:25.931Z,10.06
2023-01-03T09:28:52.768Z,9.89
2023-01-03T09:31:19.900Z,9.76
2023-01-03T09:33:49.491Z,10.22
2023-01-03T09:36:16.243Z,10.49
2023-01-03T09:38:43.143Z,10.10
2023-01-03T09:41:21.777Z,10.68
2023-01-03T09:43:51.405Z,10.02
2023-01-03T09:46:27.538Z,10.47
2023-01-03T09:48:55.969Z,10.85
2023-01-03T09:51:44.634Z,10.84
2023-01-03T09:54:44.157Z,10.89
2023-01-03T09:57:53.860Z,11.28
2023-01-03T10:00:51.154Z,11.04
2023-01-03T10:03:36.767Z,11.10
2023-01-03T10:06:06.528Z,11.24
2023-01-03T10:08:42.210Z,10.76
2023-01-03T10:11:21.650Z,11.11
2023-01-03T10:14:23.816Z,10.99
2023-01-03T10:16:56.410Z,11.02
2023-01-03T10:19:54.070Z,11.29
2023-01-03T10:22:25.448Z,11.55
2023-01-03T10:25:02.215Z,11.53
2023-01-03T10:27:31.958Z,11.23
2023-01-03T10:30:05.678Z,11.00
2023-01-03T10:33:06.243Z,11.10
2023-01-03T10:35:34.780Z,10.23
2023-01-03T10:38:04.192Z,10.55
2023-01-03T10:40:42.194Z,10.80
2023-01-03T10:43:16.467Z,10.96
2023-01-03T10:46:06.160Z,11.09
2023-01-03T10:49:17.022Z,11.17
2023-01-03T10:51:42.248Z,10.88
2023-01-03T10:54:18.665Z,10.99
2023-01-03T10:56:47.397Z,11.22
2023-01-03T10:59:26.268Z,11.52
2023-01-03T11:02:19.284Z,11.36
2023-01-03T11:05:08.105Z,11.02
2023-01-03T11:07:44.852Z,10.83
2023-01-03T11:10:18.396Z,11.04
2023-01-03T11:12:48.529Z,11.04
2023-01-03T11:15:17.644Z,11.68
2023-01-03T11:18:02.061Z,11.74
2023-01-03T11:20:49.003Z,11.42
2023-01-03T11:23:21.713Z,12.05
2023-01-03T11:26:06.740Z,12.00
2023-01-03T11:28:42.341Z,12.02
2023-01-03T11:31:36.468Z,12.69
2023-01-03T11:34:27.244Z,12.44
2023-01-03T11:37:15.788Z,12.38
2023-01-03T11:40:01.960Z,11.78
2023-01-03T11:43:11.127Z,11.83
2023-01-03T11:45:51.889Z,12.04
2023-01-03T11:48:18.704Z,11.89
2023-01-03T11:51:05.889Z,11.67
2023-01-03T11:54:03.987Z,11.84
2023-01-03T11:56:43.278Z,11.98
2023-01-03T11:59:25.357Z,11.28
2023-01-03T12:02:01.253Z,11.62
2023-01-03T12:05:10.476Z,11.61
2023-01-03T12:07:47.506Z,11.40
2023-01-03T12:10:40.063Z,11.55
2023-01-03T12:13:31.341Z,11.59
2023-01-03T12:16:08.952Z,11.80
2023-01-03T12:18:53.343Z,11.53
2023-01-03T12:21:38.412Z,11.81
2023-01-03T12:24:21.540Z,11.59
2023-01-03T12:26:55.514Z,12.17
2023-01-03T12:29:32.200Z,11.85
2023-01-03T12:32:21.496Z,11.88
2023-01-03T12:35:01.409Z,11.61
2023-01-03T12:37:33.814Z,11.40
2023-01-03T12:40:02.120Z,11.59
2023-01-03T12:42:47.175Z,11.29
2023-01-03T12:45:38.642Z,11.10
2023-01-03T12:48:22.015Z,11.58
2023-01-03T12:50:51.587Z,11.49
2023-01-03T12:53:39.740Z,11.36
2023-01-03T12:56:25.583Z,11.67
2023-01-03T12:59:46.765Z,11.60
2023-01-03T13:02:16.547Z,11.76
2023-01-03T13:04:45.312Z,11.81
2023-01-03T13:07:28.383Z,11.97
2023-01-03T13:10:01.382Z,11.76
2023-01-03T13:12:31.666Z,11.52
2023-01-03T13:15:16.714Z,11.77
2023-01-03T13:17:49.470Z,11.39
2023-01-03T13:20:29.557Z,11.70
2023-01-03T13:23:00.759Z,11.58
2023-01-03T13:25:35.155Z,11.58
2023-01-03T13:28:09.258Z,11.47
2023-01-03T13:30:38.803Z,11.54
2023-01-03T13:33:11.840Z,11.55
2023-01-03T13:35:46.805Z,11.28
2023-01-03T13:38:39.524Z,11.12
2023-01-03T13:41:36.412Z,10.65
2023-01-03T13:44:18.357Z,10.80
2023-01-03T13:46:46.581Z,10.51
2023-01-03T13:49:25.812Z,10.68
2023-01-03T13:51:58.795Z,10.89
2023-01-03T13:54:58.692Z,10.85
2023-01-03T13:57:52.648Z,10.90
2023-01-03T14:00:22.582Z,10.80
2023-01-03T14:02:55.534Z,10.67
2023-01-03T14:05:41.059Z,10.73
2023-01-03T14:08:35.336Z,10.70
2023-01-03T14:11:29.231Z,10.86
2023-01-03T14:14:04.549Z,10.60
2023-01-03T14:16:44.318Z,10.66
2023-01-03T14:19:36.396Z,10.29
2023-01-03T14:22:28.038Z,10.28
2023-01-03T14:24:59.159Z,10.09
2023-01-03T14:27:40.731Z,10.28
2023-01-03T14:30:22.521Z,10.21
2023-01-03T14:32:49.469Z,10.13
2023-01-03T14:35:36.416Z,10.18
2023-01-03T14:38:07.046Z,10.18
2023-01-03T14:40:34.725Z,10.08
2023-01-03T14:43:05.131Z,9.79
2023-01-03T14:45:32.253Z,9.84
2023-01-03T14:47:59.086Z,9.76
2023-01-03T14:50:30.591Z,10.03
2023-01-03T14:53:04.718Z,10.12
2023-01-03T14:55:33.489Z,10.05
2023-01-03T14:58:04.993Z,9.80
2023-01-03T15:00:38.630Z,9.66
2023-01-03T15:03:13.512Z,9.64
2023-01-03T15:05:41.300Z,9.71
2023-01-03T15:08:09.325Z,9.62
2023-01-03T15:10:42.031Z,9.57
2023-01-03T15:13:20.167Z,9.49
2023-01-03T15:15:58.896Z,9.38
2023-01-03T15:18:30.500Z,9.65
2023-01-03T15:20:59.116Z,9.80
2023-01-03T15:23:39.002Z,10.79
2023-01-03T15:26:12.121Z,10.93
2023-01-03T15:28:50.241Z,10.75
2023-01-03T15:31:46.565Z,10.64
2023-01-03T15:34:17.474Z,10.82
2023-01-03T15:37:16.380Z,10.97
2023-01-03T15:39:48.464Z,10.94
2023-01-03T15:42:47.849Z,11.09
2023-01-03T15:45:22.073Z,10.67
2023-01-03T15:47:52.824Z,10.40
2023-01-03T15:50:20.820Z,10.86
2023-01-03T15:52:48.985Z,11.24
2023-01-03T15:55:17.441Z,11.09
2023-01-03T15:57:50.343Z,11.16
2023-01-03T16:00:21.617Z,11.52
2023-01-03T16:02:49.279Z,11.47
2023-01-03T16:05:22.113Z,11.09
2023-01-03T16:07:51.191Z,11.11
2023-01-03T16:10:24.890Z,11.05
2023-01-03T16:12:51.665Z,10.80
2023-01-03T16:15:26.992Z,10.90
2023-01-03T16:17:54.189Z,10.77
2023-01-03T16:20:24.413Z,10.93
2023-01-03T16:23:01.142Z,11.21
2023-01-03T16:25:28.855Z,11.05
2023-01-03T16:27:57.421Z,11.37
2023-01-03T16:30:24.471Z,10.95
2023-01-03T16:32:52.459Z,11.20
2023-01-03T16:35:20.895Z,11.14
2023-01-03T16:37:48.347Z,11.10
2023-01-03T16:40:19.417Z,11.08
2023-01-03T16:42:49.544Z,11.19
2023-01-03T16:45:17.716Z,10.82
2023-01-03T16:47:49.255Z,11.39
2023-01-03T16:50:20.506Z,11.00
2023-01-03T16:52:52.657Z,11.18
2023-01-03T16:55:34.785Z,11.11
2023-01-03T16:58:03.673Z,11.38
2023-01-03T17:00:37.551Z,11.65
2023-01-03T17:03:05.458Z,11.54
2023-01-03T17:05:38.111Z,11.36
2023-01-03T17:08:17.544Z,11.31
2023-01-03T17:10:46.885Z,11.23
2023-01-03T17:13:23.895Z,11.59
2023-01-03T17:15:50.902Z,11.10
2023-01-03T17:18:23.634Z,11.46
2023-01-03T17:21:01.384Z,11.45
2023-01-03T17:23:35.591Z,11.36
2023-01-03T17:26:02.681Z,11.17
2023-01-03T17:28:29.795Z,11.30
2023-01-03T17:30:56.810Z,11.32
2023-01-03T17:33:33.634Z,11.21
2023-01-03T17:36:01.380Z,11.62
2023-01-03T17:38:31.260Z,11.36
2023-01-03T17:40:58.787Z,11.66
2023-01-03T17:43:25.868Z,11.69
2023-01-03T17:46:20.751Z,11.21
2023-01-03T17:49:09.159Z,11.57
2023-01-03T17:51:36.036Z,11.56
2023-01-03T17:54:02.742Z,11.66
2023-01-03T17:56:31.968Z,11.57
2023-01-03T17:59:02.042Z,11.79
2023-01-03T18:01:29.028Z,11.46
2023-01-03T18:03:56.209Z,11.68
2023-01-03T18:06:25.485Z,11.27
2023-01-03T18:08:52.972Z,11.04
2023-01-03T18:11:26.885Z,11.95
2023-01-03T18:13:54.404Z,11.56
2023-01-03T18:16:27.474Z,11.77
2023-01-03T18:18:57.379Z,11.43
2023-01-03T18:21:34.585Z,11.50
2023-01-03T18:24:05.403Z,11.72
2023-01-03T18:26:38.123Z,11.39
2023-01-03T18:29:15.428Z,11.41
2023-01-03T18:31:44.011Z,11.40
2023-01-03T18:34:22.775Z,11.38
2023-01-03T18:36:54.171Z,11.26
2023-01-03T18:39:29.767Z,11.78
2023-01-03T18:42:20.568Z,11.46
2023-01-03T18:44:49.275Z,11.22
2023-01-03T18:47:20.850Z,11.43
2023-01-03T18:49:51.551Z,11.49
2023-01-03T18:52:27.756Z,11.42
2023-01-03T18:54:54.688Z,11.13
2023-01-03T18:57:22.822Z,11.47
2023-01-03T18:59:56.361Z,11.41
2023-01-03T19:02:25.576Z,11.09
2023-01-03T19:04:52.961Z,11.09
2023-01-03T19:07:32.756Z,10.88
2023-01-03T19:10:01.925Z,10.84
2023-01-03T19:12:40.563Z,10.93
2023-01-03T19:15:24.060Z,10.90
2023-01-03T19:17:57.005Z,11.48
2023-01-03T19:20:27.586Z,11.25
2023-01-03T19:23:01.713Z,11.23
2023-01-03T19:25:31.787Z,11.31
2023-01-03T19:28:06.105Z,11.30
2023-01-03T19:30:40.635Z,11.33
2023-01-03T19:33:13.174Z,11.79
2023-01-03T19:35:51.312Z,11.18
2023-01-03T19:38:25.317Z,11.37
2023-01-03T19:41:00.041Z,11.52
2023-01-03T19:43:29.901Z,11.32
2023-01-03T19:45:57.108Z,11.12
2023-01-03T19:48:27.046Z,11.84
2023-01-03T19:50:54.369Z,11.12
2023-01-03T19:53:21.355Z,11.22
2023-01-03T19:55:55.270Z,11.32
2023-01-03T19:58:26.841Z,11.62
2023-01-03T20:00:54.466Z,11.38
2023-01-03T20:03:34.880Z,11.24
2023-01-03T20:06:01.995Z,11.43
2023-01-03T20:08:32.095Z,11.55
2023-01-03T20:10:59.131Z,11.28
2023-01-03T20:13:27.764Z,11.45
2023-01-03T20:16:02.704Z,11.76
2023-01-03T20:18:39.470Z,11.93
2023-01-03T20:21:24.891Z,11.44
2023-01-03T20:24:05.464Z,11.68
2023-01-03T20:26:35.169Z,11.84
2023-01-03T20:29:05.637Z,11.35
2023-01-03T20:31:35.613Z,11.82
2023-01-03T20:34:09.346Z,11.43
2023-01-03T20:36:46.050Z,11.72
2023-01-03T20:39:33.889Z,11.66
2023-01-03T20:42:03.880Z,11.80
2023-01-03T20:44:34.290Z,11.77
2023-01-03T20:47:01.657Z,11.32
2023-01-03T20:49:29.703Z,11.69
2023-01-03T20:52:04.247Z,11.62
2023-01-03T20:54:33.261Z,11.42
2023-01-03T20:57:00.284Z,11.73
2023-01-03T20:59:29.292Z,11.55
2023-01-03T21:01:56.805Z,11.38
2023-01-03T21:04:24.133Z,11.92
2023-01-03T21:06:53.261Z,11.53
2023-01-03T21:09:27.842Z,11.50
2023-01-03T21:11:56.432Z,11.74
2023-01-03T21:14:28.479Z,12.17
2023-01-03T21:16:55.773Z,11.46
2023-01-03T21:19:24.544Z,11.53
2023-01-03T21:22:00.348Z,11.36
2023-01-03T21:24:29.495Z,11.07
2023-01-03T21:27:01.539Z,11.41
2023-01-03T21:29:28.385Z,11.53
2023-01-03T21:31:56.819Z,11.85
2023-01-03T21:34:26.286Z,11.20
2023-01-03T21:36:53.797Z,11.33
2023-01-03T21:39:25.526Z,11.73
2023-01-03T21:42:16.027Z,11.23
2023-01-03T21:44:43.199Z,11.31
2023-01-03T21:47:13.667Z,11.50
2023-01-03T21:49:43.180Z,11.24
2023-01-03T21:52:10.450Z,11.51
2023-01-03T21:54:40.259Z,11.33
2023-01-03T21:57:22.750Z,11.58
2023-01-03T21:59:50.512Z,11.54
2023-01-03T22:02:36.186Z,11.64
2023-01-03T22:05:05.779Z,11.19
2023-01-03T22:07:33.574Z,11.52
2023-01-03T22:10:21.848Z,12.37
2023-01-03T22:13:01.547Z,11.77
2023-01-03T22:15:38.564Z,11.52
2023-01-03T22:18:09.217Z,11.71
2023-01-03T22:20:39.223Z,11.66
2023-01-03T22:23:08.322Z,11.70
2023-01-03T22:25:36.090Z,11.86
2023-01-03T22:28:06.872Z,11.96
2023-01-03T22:30:33.874Z,11.99
2023-01-03T22:33:04.698Z,11.53
2023-01-03T22:35:31.743Z,12.46
2023-01-03T22:38:09.467Z,11.83
2023-01-03T22:40:36.857Z,12.21
2023-01-03T22:43:09.787Z,12.13
2023-01-03T22:45:38.890Z,12.18
2023-01-03T22:48:05.835Z,11.95
2023-01-03T22:50:32.679Z,11.56
2023-01-03T22:53:00.293Z,12.03
2023-01-03T22:55:32.017Z,11.78
2023-01-03T22:58:00.070Z,11.89
2023-01-03T23:00:31.229Z,11.71
2023-01-03T23:02:58.695Z,12.17
2023-01-03T23:05:25.722Z,11.86
2023-01-03T23:07:52.725Z,12.20
2023-01-03T23:10:20.723Z,12.10
2023-01-03T23:12:59.909Z,11.76
2023-01-03T23:15:32.820Z,12.10
2023-01-03T23:18:00.631Z,12.05
2023-01-03T23:20:31.654Z,12.04
2023-01-03T23:23:05.866Z,12.24
2023-01-03T23:25:35.957Z,12.30
2023-01-03T23:28:02.807Z,12.17
2023-01-03T23:30:29.640Z,12.17
2023-01-03T23:32:56.693Z,12.26
2023-01-03T23:35:24.680Z,11.91
2023-01-03T23:37:51.408Z,12.30
2023-01-03T23:40:18.478Z,12.14
2023-01-03T23:42:45.321Z,12.54
2023-01-03T23:45:12.590Z,12.45
2023-01-03T23:47:39.502Z,12.44
2023-01-03T23:50:06.760Z,12.06
2023-01-03T23:52:33.935Z,12.13
2023-01-03T23:55:05.098Z,11.80
2023-01-03T23:57:35.586Z,12.30
